OELOV WAMM-WAEE
Flight info
| Callsign | OELOV |
|---|---|
| Flight time | 0h 35m |
| Altitude | 21000 |
| Route | SOSOK |
| Aircraft | A319/M-SDE3FGHIRWY/LB1 |
Departure
| Time | 2026-04-15 11:19 |
|---|---|
| Airport | Sam Ratulangi International Airport (WAMM) |
Arrival
| Time | 2026-04-15 11:55 |
|---|---|
| Airport | Sultan Babullah Airport (WAEE) |
| Time | Latitude | Longitude | Altitude | Speed | Heading |
|---|---|---|---|---|---|
| 2026-04-15 11:01 | 1.54470 | 124.92348 | 273 ft | 0 kts | 272° |
| 2026-04-15 11:08 | 1.54470 | 124.92351 | 273 ft | 2 kts | 272° |
| 2026-04-15 11:08 | 1.54470 | 124.92366 | 273 ft | 2 kts | 272° |
| 2026-04-15 11:09 | 1.54469 | 124.92381 | 273 ft | 2 kts | 272° |
| 2026-04-15 11:09 | 1.54469 | 124.92396 | 273 ft | 2 kts | 272° |
| 2026-04-15 11:09 | 1.54468 | 124.92411 | 273 ft | 2 kts | 272° |
| 2026-04-15 11:09 | 1.54468 | 124.92426 | 273 ft | 2 kts | 272° |
| 2026-04-15 11:10 | 1.54468 | 124.92442 | 273 ft | 1 kts | 283° |
| 2026-04-15 11:10 | 1.54459 | 124.92454 | 273 ft | 2 kts | 328° |
| 2026-04-15 11:10 | 1.54449 | 124.92458 | 273 ft | 0 kts | 358° |
| 2026-04-15 11:10 | 1.54441 | 124.92457 | 273 ft | 0 kts | 2° |
| 2026-04-15 11:12 | 1.54450 | 124.92457 | 272 ft | 2 kts | 1° |
| 2026-04-15 11:12 | 1.54482 | 124.92458 | 272 ft | 6 kts | 1° |
| 2026-04-15 11:13 | 1.54539 | 124.92460 | 272 ft | 9 kts | 2° |
| 2026-04-15 11:13 | 1.54618 | 124.92462 | 272 ft | 12 kts | 2° |
| 2026-04-15 11:13 | 1.54716 | 124.92466 | 272 ft | 15 kts | 2° |
| 2026-04-15 11:13 | 1.54825 | 124.92469 | 272 ft | 16 kts | 2° |
| 2026-04-15 11:14 | 1.54949 | 124.92473 | 272 ft | 18 kts | 2° |
| 2026-04-15 11:14 | 1.55084 | 124.92478 | 272 ft | 20 kts | 1° |
| 2026-04-15 11:14 | 1.55228 | 124.92482 | 272 ft | 21 kts | 2° |
| 2026-04-15 11:14 | 1.55381 | 124.92487 | 272 ft | 22 kts | 2° |
| 2026-04-15 11:15 | 1.55543 | 124.92493 | 272 ft | 23 kts | 1° |
| 2026-04-15 11:15 | 1.55712 | 124.92498 | 272 ft | 25 kts | 2° |
| 2026-04-15 11:15 | 1.55854 | 124.92503 | 272 ft | 18 kts | 2° |
| 2026-04-15 11:15 | 1.55984 | 124.92507 | 272 ft | 18 kts | 2° |
| 2026-04-15 11:16 | 1.56085 | 124.92513 | 272 ft | 11 kts | 16° |
| 2026-04-15 11:16 | 1.56119 | 124.92567 | 272 ft | 2 kts | 92° |
| 2026-04-15 11:16 | 1.56118 | 124.92584 | 272 ft | 3 kts | 92° |
| 2026-04-15 11:16 | 1.56117 | 124.92612 | 272 ft | 5 kts | 92° |
| 2026-04-15 11:17 | 1.56116 | 124.92647 | 273 ft | 3 kts | 92° |
| 2026-04-15 11:17 | 1.56115 | 124.92666 | 274 ft | 1 kts | 92° |
| 2026-04-15 11:17 | 1.56113 | 124.92672 | 275 ft | 0 kts | 130° |
| 2026-04-15 11:17 | 1.56104 | 124.92675 | 275 ft | 2 kts | 176° |
| 2026-04-15 11:18 | 1.56081 | 124.92675 | 275 ft | 0 kts | 181° |
| 2026-04-15 11:18 | 1.56067 | 124.92674 | 275 ft | 16 kts | 181° |
| 2026-04-15 11:18 | 1.55659 | 124.92661 | 274 ft | 98 kts | 182° |
| 2026-04-15 11:18 | 1.54748 | 124.92631 | 288 ft | 161 kts | 182° |
| 2026-04-15 11:19 | 1.53588 | 124.92588 | 730 ft | 178 kts | 182° |
| 2026-04-15 11:19 | 1.52286 | 124.92543 | 1333 ft | 193 kts | 182° |
| 2026-04-15 11:19 | 1.50924 | 124.92504 | 1989 ft | 208 kts | 181° |
| 2026-04-15 11:19 | 1.49451 | 124.92481 | 2579 ft | 220 kts | 180° |
| 2026-04-15 11:20 | 1.47870 | 124.92584 | 3140 ft | 235 kts | 173° |
| 2026-04-15 11:20 | 1.46208 | 124.92851 | 3658 ft | 252 kts | 171° |
| 2026-04-15 11:20 | 1.44423 | 124.93169 | 4195 ft | 269 kts | 171° |
| 2026-04-15 11:20 | 1.42568 | 124.93497 | 5017 ft | 274 kts | 171° |
| 2026-04-15 11:21 | 1.40726 | 124.93928 | 5873 ft | 279 kts | 158° |
| 2026-04-15 11:21 | 1.39214 | 124.95125 | 6678 ft | 288 kts | 126° |
| 2026-04-15 11:21 | 1.38347 | 124.96924 | 7549 ft | 292 kts | 111° |
| 2026-04-15 11:21 | 1.37646 | 124.98830 | 8397 ft | 297 kts | 110° |
| 2026-04-15 11:22 | 1.36935 | 125.00786 | 9257 ft | 302 kts | 110° |
| 2026-04-15 11:22 | 1.36212 | 125.02738 | 10111 ft | 307 kts | 111° |
| 2026-04-15 11:22 | 1.35447 | 125.04762 | 10795 ft | 319 kts | 111° |
| 2026-04-15 11:22 | 1.34628 | 125.06900 | 11282 ft | 338 kts | 111° |
| 2026-04-15 11:23 | 1.33755 | 125.09158 | 11750 ft | 356 kts | 111° |
| 2026-04-15 11:23 | 1.32846 | 125.11502 | 12423 ft | 366 kts | 112° |
| 2026-04-15 11:23 | 1.31868 | 125.13832 | 13249 ft | 370 kts | 115° |
| 2026-04-15 11:23 | 1.30807 | 125.16193 | 14119 ft | 373 kts | 115° |
| 2026-04-15 11:24 | 1.29746 | 125.18532 | 14925 ft | 376 kts | 116° |
| 2026-04-15 11:24 | 1.28665 | 125.20921 | 15712 ft | 380 kts | 115° |
| 2026-04-15 11:24 | 1.27581 | 125.23332 | 16494 ft | 383 kts | 115° |
| 2026-04-15 11:24 | 1.26492 | 125.25762 | 17241 ft | 386 kts | 115° |
| 2026-04-15 11:25 | 1.25400 | 125.28204 | 17959 ft | 389 kts | 116° |
| 2026-04-15 11:25 | 1.24287 | 125.30696 | 18662 ft | 393 kts | 116° |
| 2026-04-15 11:25 | 1.23172 | 125.33195 | 19305 ft | 397 kts | 116° |
| 2026-04-15 11:25 | 1.22040 | 125.35732 | 19927 ft | 401 kts | 116° |
| 2026-04-15 11:26 | 1.20901 | 125.38286 | 20515 ft | 406 kts | 116° |
| 2026-04-15 11:26 | 1.19758 | 125.40851 | 20846 ft | 408 kts | 116° |
| 2026-04-15 11:26 | 1.18590 | 125.43471 | 20911 ft | 409 kts | 116° |
| 2026-04-15 11:26 | 1.17442 | 125.46049 | 20920 ft | 409 kts | 116° |
| 2026-04-15 11:27 | 1.16293 | 125.48628 | 20923 ft | 409 kts | 116° |
| 2026-04-15 11:27 | 1.15135 | 125.51228 | 20925 ft | 409 kts | 116° |
| 2026-04-15 11:27 | 1.13967 | 125.53848 | 20926 ft | 409 kts | 116° |
| 2026-04-15 11:27 | 1.12810 | 125.56444 | 20926 ft | 409 kts | 116° |
| 2026-04-15 11:28 | 1.11667 | 125.59010 | 20926 ft | 409 kts | 116° |
| 2026-04-15 11:28 | 1.10502 | 125.61623 | 20926 ft | 409 kts | 116° |
| 2026-04-15 11:28 | 1.09348 | 125.64213 | 20926 ft | 409 kts | 116° |
| 2026-04-15 11:28 | 1.08189 | 125.66819 | 20925 ft | 409 kts | 116° |
| 2026-04-15 11:29 | 1.07050 | 125.69389 | 20926 ft | 409 kts | 116° |
| 2026-04-15 11:29 | 1.05889 | 125.72006 | 20926 ft | 409 kts | 116° |
| 2026-04-15 11:29 | 1.04731 | 125.74613 | 20926 ft | 409 kts | 116° |
| 2026-04-15 11:29 | 1.03578 | 125.77205 | 20926 ft | 409 kts | 116° |
| 2026-04-15 11:30 | 1.02422 | 125.79800 | 20926 ft | 409 kts | 116° |
| 2026-04-15 11:30 | 1.01277 | 125.82368 | 20925 ft | 409 kts | 116° |
| 2026-04-15 11:30 | 1.00120 | 125.84964 | 20923 ft | 408 kts | 116° |
| 2026-04-15 11:30 | 0.98961 | 125.87566 | 20920 ft | 408 kts | 116° |
| 2026-04-15 11:31 | 0.97810 | 125.90149 | 20918 ft | 408 kts | 116° |
| 2026-04-15 11:31 | 0.96653 | 125.92744 | 20915 ft | 409 kts | 116° |
| 2026-04-15 11:31 | 0.95491 | 125.95352 | 20912 ft | 409 kts | 116° |
| 2026-04-15 11:31 | 0.94334 | 125.97947 | 20909 ft | 409 kts | 116° |
| 2026-04-15 11:32 | 0.93194 | 126.00504 | 20906 ft | 409 kts | 116° |
| 2026-04-15 11:32 | 0.92038 | 126.03101 | 20903 ft | 409 kts | 116° |
| 2026-04-15 11:32 | 0.90871 | 126.05718 | 20901 ft | 409 kts | 116° |
| 2026-04-15 11:32 | 0.89718 | 126.08301 | 20900 ft | 409 kts | 116° |
| 2026-04-15 11:33 | 0.88554 | 126.10884 | 20899 ft | 408 kts | 116° |
| 2026-04-15 11:33 | 0.87385 | 126.13475 | 20898 ft | 408 kts | 116° |
| 2026-04-15 11:33 | 0.86221 | 126.16065 | 20898 ft | 408 kts | 116° |
| 2026-04-15 11:33 | 0.85062 | 126.18651 | 20898 ft | 408 kts | 116° |
| 2026-04-15 11:34 | 0.83899 | 126.21254 | 20898 ft | 408 kts | 116° |
| 2026-04-15 11:34 | 0.82750 | 126.23827 | 20898 ft | 408 kts | 116° |
| 2026-04-15 11:34 | 0.81597 | 126.26411 | 20898 ft | 408 kts | 116° |
| 2026-04-15 11:34 | 0.80443 | 126.29001 | 20898 ft | 408 kts | 116° |
| 2026-04-15 11:35 | 0.79277 | 126.31616 | 20898 ft | 408 kts | 116° |
| 2026-04-15 11:35 | 0.78135 | 126.34176 | 20898 ft | 408 kts | 116° |
| 2026-04-15 11:35 | 0.76979 | 126.36770 | 20898 ft | 408 kts | 116° |
| 2026-04-15 11:35 | 0.75813 | 126.39386 | 20898 ft | 408 kts | 116° |
| 2026-04-15 11:36 | 0.74659 | 126.41975 | 20898 ft | 408 kts | 116° |
| 2026-04-15 11:36 | 0.73513 | 126.44546 | 20898 ft | 408 kts | 116° |
| 2026-04-15 11:36 | 0.72349 | 126.47159 | 20898 ft | 408 kts | 116° |
| 2026-04-15 11:36 | 0.71202 | 126.49733 | 20898 ft | 408 kts | 116° |
| 2026-04-15 11:37 | 0.70058 | 126.52301 | 20898 ft | 408 kts | 116° |
| 2026-04-15 11:37 | 0.68893 | 126.54917 | 20898 ft | 408 kts | 116° |
| 2026-04-15 11:37 | 0.67851 | 126.57258 | 20898 ft | 408 kts | 116° |
| 2026-04-15 11:37 | 0.66707 | 126.59829 | 20707 ft | 407 kts | 116° |
| 2026-04-15 11:38 | 0.65561 | 126.62401 | 20458 ft | 406 kts | 116° |
| 2026-04-15 11:38 | 0.64446 | 126.64996 | 20207 ft | 405 kts | 113° |
| 2026-04-15 11:38 | 0.63525 | 126.67660 | 19954 ft | 404 kts | 108° |
| 2026-04-15 11:38 | 0.62843 | 126.70372 | 19704 ft | 403 kts | 103° |
| 2026-04-15 11:39 | 0.62290 | 126.73109 | 19452 ft | 402 kts | 102° |
| 2026-04-15 11:39 | 0.61768 | 126.75819 | 19200 ft | 400 kts | 102° |
| 2026-04-15 11:39 | 0.61240 | 126.78563 | 18869 ft | 398 kts | 102° |
| 2026-04-15 11:39 | 0.60716 | 126.81261 | 18473 ft | 396 kts | 103° |
| 2026-04-15 11:40 | 0.60189 | 126.83960 | 18046 ft | 393 kts | 103° |
| 2026-04-15 11:40 | 0.59677 | 126.86566 | 17620 ft | 390 kts | 103° |
| 2026-04-15 11:40 | 0.59155 | 126.89213 | 17176 ft | 387 kts | 103° |
| 2026-04-15 11:40 | 0.58635 | 126.91849 | 16727 ft | 385 kts | 103° |
| 2026-04-15 11:41 | 0.58119 | 126.94461 | 16281 ft | 383 kts | 103° |
| 2026-04-15 11:41 | 0.57602 | 126.97078 | 15833 ft | 381 kts | 102° |
| 2026-04-15 11:41 | 0.57092 | 126.99664 | 15390 ft | 379 kts | 102° |
| 2026-04-15 11:41 | 0.56585 | 127.02233 | 14944 ft | 377 kts | 102° |
| 2026-04-15 11:42 | 0.56081 | 127.04789 | 14493 ft | 376 kts | 102° |
| 2026-04-15 11:42 | 0.55582 | 127.07319 | 14190 ft | 369 kts | 102° |
| 2026-04-15 11:42 | 0.55098 | 127.09784 | 14119 ft | 354 kts | 102° |
| 2026-04-15 11:42 | 0.54630 | 127.12166 | 14048 ft | 341 kts | 102° |
| 2026-04-15 11:43 | 0.54181 | 127.14453 | 13986 ft | 327 kts | 102° |
| 2026-04-15 11:43 | 0.53749 | 127.16648 | 13931 ft | 314 kts | 102° |
| 2026-04-15 11:43 | 0.53341 | 127.18721 | 13902 ft | 301 kts | 103° |
| 2026-04-15 11:43 | 0.52943 | 127.20737 | 13897 ft | 287 kts | 103° |
| 2026-04-15 11:44 | 0.52563 | 127.22659 | 13758 ft | 280 kts | 103° |
| 2026-04-15 11:44 | 0.52177 | 127.24587 | 13264 ft | 287 kts | 103° |
| 2026-04-15 11:44 | 0.51777 | 127.26579 | 12815 ft | 302 kts | 103° |
| 2026-04-15 11:44 | 0.51358 | 127.28670 | 12351 ft | 312 kts | 102° |
| 2026-04-15 11:45 | 0.50932 | 127.30810 | 11905 ft | 314 kts | 102° |
| 2026-04-15 11:45 | 0.50510 | 127.32934 | 11565 ft | 311 kts | 102° |
| 2026-04-15 11:45 | 0.50089 | 127.35055 | 11239 ft | 308 kts | 102° |
| 2026-04-15 11:45 | 0.49677 | 127.37132 | 10849 ft | 308 kts | 102° |
| 2026-04-15 11:46 | 0.49255 | 127.39251 | 10315 ft | 313 kts | 102° |
| 2026-04-15 11:46 | 0.48829 | 127.41389 | 9841 ft | 314 kts | 102° |
| 2026-04-15 11:46 | 0.48401 | 127.43543 | 9388 ft | 314 kts | 102° |
| 2026-04-15 11:46 | 0.48155 | 127.45707 | 8886 ft | 316 kts | 84° |
| 2026-04-15 11:47 | 0.48870 | 127.47743 | 8456 ft | 311 kts | 53° |
| 2026-04-15 11:47 | 0.50379 | 127.49229 | 8064 ft | 306 kts | 36° |
| 2026-04-15 11:47 | 0.51986 | 127.50598 | 7728 ft | 302 kts | 41° |
| 2026-04-15 11:47 | 0.53470 | 127.52058 | 7451 ft | 296 kts | 43° |
| 2026-04-15 11:48 | 0.54911 | 127.53508 | 7184 ft | 291 kts | 43° |
| 2026-04-15 11:48 | 0.56332 | 127.54917 | 6926 ft | 285 kts | 43° |
| 2026-04-15 11:48 | 0.57720 | 127.56274 | 6681 ft | 280 kts | 43° |
| 2026-04-15 11:48 | 0.59273 | 127.57398 | 6380 ft | 272 kts | 18° |
| 2026-04-15 11:49 | 0.61087 | 127.57529 | 6056 ft | 259 kts | 342° |
| 2026-04-15 11:49 | 0.62552 | 127.56642 | 5541 ft | 245 kts | 306° |
| 2026-04-15 11:49 | 0.63427 | 127.55219 | 5157 ft | 235 kts | 298° |
| 2026-04-15 11:49 | 0.64293 | 127.53873 | 4910 ft | 231 kts | 304° |
| 2026-04-15 11:50 | 0.65314 | 127.52637 | 4548 ft | 228 kts | 312° |
| 2026-04-15 11:50 | 0.66469 | 127.51572 | 4087 ft | 224 kts | 317° |
| 2026-04-15 11:50 | 0.67645 | 127.50594 | 3649 ft | 219 kts | 318° |
| 2026-04-15 11:50 | 0.68801 | 127.49661 | 3339 ft | 213 kts | 319° |
| 2026-04-15 11:51 | 0.69954 | 127.48735 | 3123 ft | 209 kts | 319° |
| 2026-04-15 11:51 | 0.71073 | 127.47836 | 2912 ft | 206 kts | 319° |
| 2026-04-15 11:51 | 0.72185 | 127.46943 | 2703 ft | 202 kts | 319° |
| 2026-04-15 11:51 | 0.73276 | 127.46066 | 2497 ft | 198 kts | 318° |
| 2026-04-15 11:52 | 0.74318 | 127.45227 | 2103 ft | 191 kts | 319° |
| 2026-04-15 11:52 | 0.75345 | 127.44398 | 1692 ft | 187 kts | 319° |
| 2026-04-15 11:52 | 0.76349 | 127.43591 | 1403 ft | 182 kts | 319° |
| 2026-04-15 11:52 | 0.77180 | 127.42922 | 1183 ft | 174 kts | 319° |
| 2026-04-15 11:53 | 0.77541 | 127.42632 | 1055 ft | 172 kts | 319° |
| 2026-04-15 11:53 | 0.78460 | 127.41894 | 750 ft | 165 kts | 318° |
| 2026-04-15 11:53 | 0.79276 | 127.41228 | 789 ft | 142 kts | 318° |
| 2026-04-15 11:53 | 0.80026 | 127.40617 | 628 ft | 139 kts | 318° |
| 2026-04-15 11:54 | 0.80778 | 127.40009 | 434 ft | 137 kts | 318° |
| 2026-04-15 11:54 | 0.81517 | 127.39420 | 321 ft | 137 kts | 319° |
| 2026-04-15 11:54 | 0.82265 | 127.38834 | 113 ft | 136 kts | 319° |
| 2026-04-15 11:54 | 0.82963 | 127.38277 | 57 ft | 100 kts | 320° |
| 2026-04-15 11:55 | 0.83310 | 127.38000 | 57 ft | 47 kts | 321° |
| 2026-04-15 11:55 | 0.83429 | 127.37905 | 57 ft | 11 kts | 321° |
| 2026-04-15 11:55 | 0.83432 | 127.37852 | 56 ft | 7 kts | 236° |
| 2026-04-15 11:55 | 0.83413 | 127.37829 | 57 ft | 4 kts | 231° |
| 2026-04-15 11:56 | 0.83398 | 127.37810 | 56 ft | 3 kts | 232° |
| 2026-04-15 11:56 | 0.83383 | 127.37788 | 56 ft | 3 kts | 255° |
| 2026-04-15 11:56 | 0.83391 | 127.37777 | 56 ft | 0 kts | 310° |
| 2026-04-15 11:56 | 0.83391 | 127.37775 | 56 ft | 0 kts | 281° |
| 2026-04-15 11:57 | 0.83388 | 127.37769 | 56 ft | 2 kts | 234° |
| 2026-04-15 11:57 | 0.83371 | 127.37749 | 56 ft | 0 kts | 232° |